Time;durP1;ratioP1;P1;durP2;ratioP2;P2;SDS_P1;SDS_P2;PMS_P1;PMS_P2;Temp;Humidity;BMP_temperature;BMP_pressure;BME280_temperature;BME280_humidity;BME280_pressure;Samples;Min_cycle;Max_cycle;Signal;HPM_P1;HPM_P2
2023/10/01 00:00:08;;;;;;;6.57;4.43;;;14.30;99.90;;;;;;4976183;28;20514;-81
2023/10/01 00:02:36;;;;;;;4.90;4.07;;;14.30;99.90;;;;;;4976502;28;20496;-81
2023/10/01 00:05:05;;;;;;;6.40;4.33;;;14.30;99.90;;;;;;4976037;28;20459;-80
2023/10/01 00:07:36;;;;;;;7.57;4.60;;;14.20;99.90;;;;;;4976770;28;20459;-81
2023/10/01 00:10:10;;;;;;;9.10;4.73;;;14.20;99.90;;;;;;4976389;28;20511;-80
2023/10/01 00:12:38;;;;;;;6.17;4.50;;;14.20;99.90;;;;;;4976519;28;20452;-81
2023/10/01 00:15:06;;;;;;;6.37;3.90;;;14.20;99.90;;;;;;4976070;28;20463;-81
2023/10/01 00:17:33;;;;;;;4.90;4.40;;;14.10;99.90;;;;;;4975648;28;20881;-80
2023/10/01 00:20:00;;;;;;;7.73;4.50;;;14.10;99.90;;;;;;4976497;28;20470;-80
2023/10/01 00:22:33;;;;;;;7.90;4.80;;;14.00;99.90;;;;;;4976472;28;20530;-80
2023/10/01 00:25:00;;;;;;;6.20;4.53;;;14.00;99.90;;;;;;4976194;28;20507;-81
2023/10/01 00:27:26;;;;;;;10.83;6.07;;;14.00;99.90;;;;;;4976633;28;20456;-79
2023/10/01 00:29:53;;;;;;;6.10;4.60;;;14.00;99.90;;;;;;4976573;28;20542;-80
2023/10/01 00:32:21;;;;;;;9.33;5.10;;;13.90;99.90;;;;;;4976507;28;20486;-79
2023/10/01 00:34:48;;;;;;;10.90;5.83;;;13.90;99.90;;;;;;4976871;28;20523;-81
2023/10/01 00:37:15;;;;;;;7.60;5.17;;;13.90;99.90;;;;;;4976841;28;20459;-81
2023/10/01 00:39:44;;;;;;;6.03;4.87;;;13.90;99.90;;;;;;4979066;28;20513;-81
2023/10/01 00:42:10;;;;;;;5.83;4.63;;;13.80;99.90;;;;;;4977655;28;20496;-81
2023/10/01 00:44:37;;;;;;;6.20;4.10;;;13.80;99.90;;;;;;4977046;28;20462;-81
2023/10/01 00:47:06;;;;;;;7.53;4.90;;;13.80;99.90;;;;;;4979701;28;20468;-82
2023/10/01 00:49:39;;;;;;;8.00;5.03;;;13.90;99.90;;;;;;4983360;28;20503;-81
2023/10/01 00:52:10;;;;;;;6.47;5.03;;;13.80;99.90;;;;;;4984166;28;20540;-80
2023/10/01 00:54:37;;;;;;;7.80;5.10;;;13.80;99.90;;;;;;4979358;28;20482;-80
2023/10/01 00:57:05;;;;;;;8.30;4.60;;;13.80;99.90;;;;;;4979386;28;20627;-78
2023/10/01 00:59:33;;;;;;;7.03;4.50;;;13.80;99.90;;;;;;4979067;28;20476;-81
2023/10/01 01:02:00;;;;;;;7.30;4.80;;;13.70;99.90;;;;;;4979298;28;20501;-80
2023/10/01 01:04:36;;;;;;;6.27;4.97;;;13.70;99.90;;;;;;4979817;28;20470;-80
2023/10/01 01:07:05;;;;;;;9.03;4.57;;;13.70;99.90;;;;;;4978700;28;20518;-79
2023/10/01 01:09:32;;;;;;;6.53;4.90;;;13.70;99.90;;;;;;4979075;28;20539;-81
2023/10/01 01:11:59;;;;;;;6.13;4.63;;;13.70;99.90;;;;;;4979448;28;20463;-81
2023/10/01 01:14:27;;;;;;;6.37;4.20;;;13.70;99.90;;;;;;4978880;28;20465;-81
2023/10/01 01:16:54;;;;;;;7.07;5.13;;;13.70;99.90;;;;;;4978968;28;20456;-81
2023/10/01 01:19:22;;;;;;;5.57;4.13;;;13.70;99.90;;;;;;4978668;28;20455;-80
2023/10/01 01:21:50;;;;;;;5.07;4.50;;;13.70;99.90;;;;;;4978975;28;20496;-79
2023/10/01 01:24:18;;;;;;;5.60;5.00;;;13.70;99.90;;;;;;4978903;28;20523;-80
2023/10/01 01:26:51;;;;;;;7.20;5.30;;;13.60;99.90;;;;;;4978594;28;20463;-79
2023/10/01 01:29:29;;;;;;;8.30;4.70;;;13.70;99.90;;;;;;4979056;28;20972;-79
2023/10/01 01:32:06;;;;;;;6.50;4.70;;;13.70;99.90;;;;;;4979246;28;20466;-80
2023/10/01 01:34:35;;;;;;;7.57;4.73;;;13.60;99.90;;;;;;4979355;28;20497;-80
2023/10/01 01:37:06;;;;;;;5.13;4.33;;;13.60;99.90;;;;;;4971069;28;20466;-82
2023/10/01 01:39:45;;;;;;;6.60;4.40;;;13.60;99.90;;;;;;4979046;28;20523;-81
2023/10/01 01:42:13;;;;;;;6.67;3.60;;;13.60;99.90;;;;;;4972621;28;20494;-81
2023/10/01 01:44:39;;;;;;;7.80;4.90;;;13.60;99.90;;;;;;4978926;28;20458;-81
2023/10/01 01:47:07;;;;;;;5.50;4.07;;;13.60;99.90;;;;;;4978290;28;20980;-78
2023/10/01 01:49:34;;;;;;;6.30;4.13;;;13.60;99.90;;;;;;4978012;28;20480;-80
2023/10/01 01:52:03;;;;;;;5.50;3.67;;;13.60;99.90;;;;;;4978363;28;20462;-79
2023/10/01 01:54:32;;;;;;;5.70;4.20;;;13.60;99.90;;;;;;4978689;28;20456;-79
2023/10/01 01:57:00;;;;;;;7.67;4.27;;;13.60;99.90;;;;;;4979168;28;20862;-79
2023/10/01 01:59:28;;;;;;;5.80;3.57;;;13.60;99.90;;;;;;4979323;28;20509;-79
2023/10/01 02:01:56;;;;;;;4.47;3.50;;;13.60;99.90;;;;;;4977475;28;20456;-80
2023/10/01 02:04:23;;;;;;;5.47;3.90;;;13.60;99.90;;;;;;4977424;28;20524;-79
2023/10/01 02:06:52;;;;;;;8.00;4.77;;;13.60;99.90;;;;;;4978426;28;20963;-78
2023/10/01 02:09:20;;;;;;;7.80;4.77;;;13.60;99.90;;;;;;4978953;28;20453;-79
2023/10/01 02:11:48;;;;;;;9.27;5.40;;;13.60;99.90;;;;;;4978868;28;20463;-80
2023/10/01 02:14:31;;;;;;;5.83;4.30;;;13.70;99.90;;;;;;4979331;28;20540;-79
2023/10/01 02:17:03;;;;;;;5.30;4.00;;;13.70;99.90;;;;;;4978476;28;20471;-80
2023/10/01 02:19:30;;;;;;;11.73;4.63;;;13.70;99.90;;;;;;4979449;28;20558;-81
2023/10/01 02:22:02;;;;;;;5.93;4.60;;;13.70;99.90;;;;;;4978626;28;20851;-80
2023/10/01 02:24:44;;;;;;;7.47;3.90;;;13.70;99.90;;;;;;4979184;28;20469;-80
2023/10/01 02:27:12;;;;;;;8.80;5.30;;;13.70;99.90;;;;;;4979073;28;20552;-79
2023/10/01 02:30:11;;;;;;;6.90;4.50;;;13.70;99.90;;;;;;4979603;28;20480;-80
2023/10/01 02:32:33;;;;;;;7.70;4.97;;;13.70;99.90;;;;;;4978779;28;20459;-81
2023/10/01 02:35:03;;;;;;;7.33;5.27;;;13.70;99.90;;;;;;4980081;28;20532;-81
2023/10/01 02:37:35;;;;;;;6.20;4.80;;;13.70;99.90;;;;;;4979810;28;20469;-80
2023/10/01 02:40:12;;;;;;;5.50;4.03;;;13.80;99.90;;;;;;4979293;28;21004;-80
2023/10/01 02:42:38;;;;;;;5.90;4.47;;;13.70;99.90;;;;;;4979769;28;20488;-81
2023/10/01 02:45:30;;;;;;;6.80;3.87;;;13.70;99.90;;;;;;4980202;28;20540;-81
2023/10/01 02:48:13;;;;;;;6.30;4.40;;;13.70;99.90;;;;;;4979555;28;20478;-81
2023/10/01 02:50:40;;;;;;;5.97;4.83;;;13.70;99.90;;;;;;4970147;28;20474;-81
2023/10/01 02:53:08;;;;;;;6.57;4.13;;;13.70;99.90;;;;;;4980014;28;20456;-81
2023/10/01 02:55:34;;;;;;;7.60;3.70;;;13.80;99.90;;;;;;4980282;28;20497;-81
2023/10/01 02:58:17;;;;;;;5.90;3.67;;;13.80;99.90;;;;;;4980467;28;20526;-81
2023/10/01 03:00:45;;;;;;;7.63;4.70;;;13.80;99.90;;;;;;4987423;28;20478;-80
2023/10/01 03:03:15;;;;;;;6.17;4.43;;;13.80;99.90;;;;;;4982790;28;20519;-80
2023/10/01 03:05:45;;;;;;;6.53;4.30;;;13.80;99.90;;;;;;4979932;28;20971;-81
2023/10/01 03:08:25;;;;;;;6.07;4.00;;;13.80;99.90;;;;;;4978581;28;20854;-80
2023/10/01 03:10:52;;;;;;;6.03;3.70;;;13.80;99.90;;;;;;4978195;28;20900;-78
2023/10/01 03:13:23;;;;;;;5.00;3.80;;;13.80;99.90;;;;;;4977740;28;20555;-80
2023/10/01 03:18:35;;;;;;;7.23;4.10;;;13.80;99.90;;;;;;4977671;28;20815;-81
2023/10/01 03:21:07;;;;;;;5.90;3.80;;;13.80;99.90;;;;;;4978992;28;20491;-80
2023/10/01 03:23:34;;;;;;;7.03;3.70;;;13.80;99.90;;;;;;4978754;28;21034;-80
2023/10/01 03:26:04;;;;;;;7.87;3.83;;;13.80;99.90;;;;;;4972113;28;20838;-80
2023/10/01 03:28:35;;;;;;;7.63;4.07;;;13.80;99.90;;;;;;4979667;28;20486;-80
2023/10/01 03:31:12;;;;;;;4.27;3.43;;;13.80;99.90;;;;;;4971982;28;20483;-81
2023/10/01 03:33:40;;;;;;;5.00;3.73;;;13.90;99.90;;;;;;4979719;28;20457;-80
2023/10/01 03:36:09;;;;;;;4.83;3.90;;;13.90;99.90;;;;;;4978150;28;20809;-80
2023/10/01 03:38:37;;;;;;;6.67;4.50;;;13.90;99.90;;;;;;4978787;28;20452;-81
2023/10/01 03:41:08;;;;;;;5.80;3.80;;;13.90;99.90;;;;;;4978694;28;20490;-81
2023/10/01 03:43:36;;;;;;;5.27;3.40;;;14.00;99.90;;;;;;4978119;28;20531;-80
2023/10/01 03:46:13;;;;;;;6.40;4.07;;;14.00;99.90;;;;;;4977819;28;20490;-81
2023/10/01 03:48:58;;;;;;;5.23;3.50;;;14.00;99.90;;;;;;4978887;28;20461;-80
2023/10/01 03:51:52;;;;;;;5.60;3.30;;;14.10;99.90;;;;;;4978206;28;20468;-81
2023/10/01 03:54:19;;;;;;;5.30;3.47;;;14.10;99.90;;;;;;4977235;28;20447;-79
2023/10/01 03:56:47;;;;;;;5.13;3.53;;;14.20;99.90;;;;;;4977391;28;21017;-80
2023/10/01 03:59:16;;;;;;;9.40;4.00;;;14.20;99.90;;;;;;4977279;28;20460;-79
2023/10/01 04:02:02;;;;;;;5.97;3.20;;;14.20;99.90;;;;;;4977558;28;20455;-81
2023/10/01 04:04:32;;;;;;;5.17;3.20;;;14.20;99.90;;;;;;4974367;28;20498;-81
2023/10/01 04:07:09;;;;;;;7.20;3.60;;;14.30;99.90;;;;;;4978486;28;20918;-80
2023/10/01 04:09:45;;;;;;;4.70;3.50;;;14.30;99.90;;;;;;4978649;28;20478;-82
2023/10/01 04:12:19;;;;;;;4.13;3.03;;;14.30;99.90;;;;;;4977773;28;20479;-81
2023/10/01 04:14:48;;;;;;;6.57;4.03;;;14.30;99.90;;;;;;4977970;28;20453;-80
2023/10/01 04:17:18;;;;;;;9.90;3.87;;;14.40;99.90;;;;;;4978147;28;20470;-81
2023/10/01 04:19:48;;;;;;;5.70;3.30;;;14.40;99.90;;;;;;4977441;28;20559;-81
2023/10/01 04:22:17;;;;;;;6.47;3.10;;;14.40;99.90;;;;;;4977603;28;20462;-80
2023/10/01 04:25:00;;;;;;;6.40;4.20;;;14.40;99.90;;;;;;4978156;28;20491;-81
2023/10/01 04:27:30;;;;;;;5.60;3.43;;;14.50;99.90;;;;;;4978059;28;20974;-81
2023/10/01 04:29:58;;;;;;;5.83;3.30;;;14.50;99.90;;;;;;4977692;28;20487;-80
2023/10/01 04:32:27;;;;;;;6.00;3.40;;;14.50;99.90;;;;;;4982525;28;20451;-80
2023/10/01 04:34:56;;;;;;;7.17;3.60;;;14.50;99.90;;;;;;4981423;28;20452;-80
2023/10/01 04:37:36;;;;;;;5.90;3.43;;;14.50;99.90;;;;;;4980180;28;20708;-80
2023/10/01 04:40:06;;;;;;;6.43;3.70;;;14.60;99.90;;;;;;4980725;28;20530;-79
2023/10/01 04:42:37;;;;;;;6.90;3.70;;;14.60;99.90;;;;;;4980648;28;20854;-80
2023/10/01 04:45:22;;;;;;;5.00;3.63;;;14.70;99.90;;;;;;4971667;28;20453;-80
2023/10/01 04:47:55;;;;;;;8.03;4.40;;;14.70;99.90;;;;;;4975783;28;20492;-79
2023/10/01 04:50:27;;;;;;;6.93;3.70;;;14.70;99.90;;;;;;4976586;28;20488;-80
2023/10/01 04:52:57;;;;;;;5.53;3.67;;;14.70;99.90;;;;;;4976993;28;20489;-80
2023/10/01 04:55:25;;;;;;;5.30;3.47;;;14.80;99.90;;;;;;4977168;28;20466;-84
2023/10/01 04:57:52;;;;;;;7.00;3.23;;;14.80;99.90;;;;;;4976510;28;20569;-83
2023/10/01 05:00:22;;;;;;;6.53;3.30;;;14.80;99.90;;;;;;4977683;28;20475;-83
2023/10/01 05:02:51;;;;;;;5.70;3.83;;;14.80;99.90;;;;;;4980273;28;20961;-83
2023/10/01 05:05:25;;;;;;;4.80;2.93;;;14.70;99.90;;;;;;4979741;28;20473;-84
2023/10/01 05:07:55;;;;;;;4.30;2.73;;;14.70;99.90;;;;;;4978822;28;20480;-83
2023/10/01 05:10:22;;;;;;;4.77;3.40;;;14.70;99.90;;;;;;4980552;28;20487;-82
2023/10/01 05:12:55;;;;;;;6.60;3.80;;;14.70;99.90;;;;;;4976774;28;20463;-83
2023/10/01 05:15:25;;;;;;;6.80;3.50;;;14.70;99.90;;;;;;4975026;28;20462;-82
2023/10/01 05:17:55;;;;;;;6.60;3.80;;;14.70;99.90;;;;;;4975051;28;20465;-82
2023/10/01 05:20:23;;;;;;;9.80;3.63;;;14.70;99.90;;;;;;4974855;28;20545;-82
2023/10/01 05:22:54;;;;;;;6.20;3.40;;;14.60;99.90;;;;;;4976994;28;20471;-82
2023/10/01 05:25:21;;;;;;;6.70;3.30;;;14.70;99.90;;;;;;4976878;28;20795;-81
2023/10/01 05:27:52;;;;;;;4.13;3.37;;;14.70;99.90;;;;;;4975878;28;20969;-80
2023/10/01 05:30:36;;;;;;;5.93;3.10;;;14.70;99.90;;;;;;4973978;28;20507;-81
2023/10/01 05:33:06;;;;;;;5.13;3.20;;;14.60;99.90;;;;;;4976660;28;20494;-80
2023/10/01 05:35:35;;;;;;;9.20;3.50;;;14.70;99.90;;;;;;4977280;28;20966;-82
2023/10/01 05:38:04;;;;;;;6.30;4.10;;;14.70;99.90;;;;;;4974544;28;20459;-80
2023/10/01 05:40:34;;;;;;;4.70;3.47;;;14.60;99.90;;;;;;4977820;28;20479;-82
2023/10/01 05:43:12;;;;;;;5.70;3.23;;;14.70;99.90;;;;;;4969592;28;20839;-80
2023/10/01 05:45:41;;;;;;;4.60;2.80;;;14.70;99.90;;;;;;4977816;28;20484;-78
2023/10/01 05:48:10;;;;;;;5.77;3.70;;;14.70;99.90;;;;;;4977554;28;20466;-81
2023/10/01 05:50:39;;;;;;;7.47;3.73;;;14.70;99.90;;;;;;4978028;28;20483;-82
2023/10/01 05:53:09;;;;;;;4.93;3.30;;;14.60;99.90;;;;;;4982580;28;20466;-82
2023/10/01 05:55:37;;;;;;;5.00;3.27;;;14.60;99.90;;;;;;4980539;28;20459;-82
2023/10/01 05:58:13;;;;;;;7.33;4.00;;;14.50;99.90;;;;;;4974104;28;20612;-83
2023/10/01 06:00:45;;;;;;;5.30;3.20;;;14.50;99.90;;;;;;4981863;28;20472;-83
2023/10/01 06:03:14;;;;;;;9.20;4.00;;;14.40;99.90;;;;;;4980679;28;20452;-84
2023/10/01 06:05:50;;;;;;;7.50;3.70;;;14.40;99.90;;;;;;4981673;28;20462;-83
2023/10/01 06:08:17;;;;;;;8.03;4.67;;;14.40;99.90;;;;;;4982022;28;20462;-80
2023/10/01 06:10:59;;;;;;;5.33;2.90;;;14.40;99.90;;;;;;4982987;28;21064;-82
2023/10/01 06:13:29;;;;;;;4.97;3.30;;;14.40;99.90;;;;;;4983375;28;20462;-82
2023/10/01 06:15:57;;;;;;;10.07;3.97;;;14.30;99.90;;;;;;4983912;28;20464;-82
2023/10/01 06:18:27;;;;;;;6.03;4.10;;;14.40;99.90;;;;;;4981372;28;20473;-84
2023/10/01 06:20:54;;;;;;;6.13;3.70;;;14.40;99.90;;;;;;4980604;28;20565;-84
2023/10/01 06:23:22;;;;;;;5.37;3.07;;;14.40;99.90;;;;;;4993091;28;20454;-83
2023/10/01 06:25:53;;;;;;;5.63;3.70;;;14.40;99.90;;;;;;4982183;28;20462;-84
2023/10/01 06:28:23;;;;;;;5.77;3.60;;;14.40;99.90;;;;;;4979236;28;20853;-84
2023/10/01 06:30:50;;;;;;;7.10;3.57;;;14.50;99.90;;;;;;4978651;28;20476;-84
2023/10/01 06:33:25;;;;;;;6.83;3.87;;;14.50;99.90;;;;;;4977859;28;20473;-83
2023/10/01 06:38:38;;;;;;;10.97;4.97;;;14.60;99.90;;;;;;4974566;28;20454;-85
2023/10/01 06:41:06;;;;;;;6.47;3.90;;;14.60;99.90;;;;;;4973657;28;20500;-84
2023/10/01 06:43:44;;;;;;;9.07;4.30;;;14.70;99.90;;;;;;4972940;28;20500;-84
2023/10/01 06:46:11;;;;;;;5.47;3.90;;;14.70;99.90;;;;;;4976786;28;20834;-82
2023/10/01 06:48:39;;;;;;;6.00;4.13;;;14.80;99.90;;;;;;4973789;28;20460;-82
2023/10/01 06:51:08;;;;;;;9.17;4.70;;;14.80;99.90;;;;;;4977609;28;20501;-82
2023/10/01 06:53:45;;;;;;;7.13;3.87;;;14.80;99.90;;;;;;4981520;28;20471;-83
2023/10/01 06:56:14;;;;;;;8.33;4.67;;;14.90;99.90;;;;;;4979061;28;20491;-82
2023/10/01 06:58:41;;;;;;;8.83;5.07;;;14.90;99.90;;;;;;4980829;28;20984;-83
2023/10/01 07:01:34;;;;;;;8.87;4.80;;;14.90;99.90;;;;;;4978800;28;20475;-82
2023/10/01 07:03:56;;;;;;;9.40;5.10;;;15.00;99.90;;;;;;4980694;28;20515;-82
2023/10/01 07:06:26;;;;;;;9.07;4.17;;;15.00;99.90;;;;;;4981178;28;20457;-82
2023/10/01 07:08:53;;;;;;;6.80;4.10;;;15.00;99.90;;;;;;4977166;28;20455;-82
2023/10/01 07:11:21;;;;;;;7.83;4.40;;;15.10;99.90;;;;;;4978896;28;20510;-83
2023/10/01 07:13:52;;;;;;;9.23;4.83;;;15.20;99.90;;;;;;4974525;28;20459;-82
2023/10/01 07:16:35;;;;;;;9.43;4.57;;;15.20;99.90;;;;;;4977193;28;20465;-82
2023/10/01 07:19:04;;;;;;;8.13;4.50;;;15.30;99.90;;;;;;4977037;28;20456;-82
2023/10/01 07:21:33;;;;;;;13.43;5.30;;;15.40;99.90;;;;;;4976944;28;20487;-81
2023/10/01 07:24:00;;;;;;;10.30;5.03;;;15.50;99.90;;;;;;4981984;28;20647;-83
2023/10/01 07:26:28;;;;;;;9.57;4.50;;;15.50;99.90;;;;;;4988207;28;20478;-83
2023/10/01 07:28:56;;;;;;;8.60;5.10;;;15.60;99.90;;;;;;4981002;28;20456;-83
2023/10/01 07:31:24;;;;;;;8.70;4.90;;;15.70;99.90;;;;;;4979617;28;20467;-83
2023/10/01 07:33:53;;;;;;;6.73;4.27;;;15.80;99.90;;;;;;4979078;28;20463;-84
2023/10/01 07:36:23;;;;;;;12.00;5.93;;;15.70;99.90;;;;;;4980887;28;20462;-83
2023/10/01 07:38:52;;;;;;;12.57;5.83;;;15.80;99.90;;;;;;4979638;28;20499;-84
2023/10/01 07:41:20;;;;;;;10.97;4.93;;;15.90;99.90;;;;;;4980703;28;20530;-83
2023/10/01 07:43:49;;;;;;;8.47;4.70;;;15.90;99.90;;;;;;4980428;28;20457;-85
2023/10/01 07:46:18;;;;;;;10.60;5.40;;;16.00;99.90;;;;;;4979622;28;20460;-83
2023/10/01 07:48:48;;;;;;;12.23;5.10;;;16.10;99.90;;;;;;4980039;28;20876;-85
2023/10/01 07:51:26;;;;;;;9.03;4.70;;;16.10;99.90;;;;;;4979792;28;20503;-85
2023/10/01 07:53:57;;;;;;;9.10;5.07;;;16.20;99.90;;;;;;4981229;28;20470;-84
2023/10/01 07:56:23;;;;;;;11.47;6.17;;;16.30;99.90;;;;;;4979673;28;20471;-84
2023/10/01 07:59:16;;;;;;;8.20;4.90;;;16.20;99.90;;;;;;4979875;28;20545;-84
2023/10/01 08:01:45;;;;;;;10.20;5.27;;;16.30;99.90;;;;;;4980226;28;20542;-83
2023/10/01 08:06:56;;;;;;;9.33;4.83;;;16.40;99.90;;;;;;4987155;28;20673;-83
2023/10/01 08:09:25;;;;;;;11.47;6.10;;;16.50;99.90;;;;;;4980824;28;21028;-84
2023/10/01 08:11:58;;;;;;;8.30;4.83;;;16.50;99.90;;;;;;4977901;28;20463;-84
2023/10/01 08:14:26;;;;;;;9.70;4.63;;;16.70;99.90;;;;;;4972075;28;20461;-84
2023/10/01 08:16:56;;;;;;;8.30;5.27;;;16.80;99.90;;;;;;4982219;28;20453;-83
2023/10/01 08:19:22;;;;;;;11.83;6.07;;;16.80;99.90;;;;;;4983302;28;20825;-83
2023/10/01 08:21:53;;;;;;;11.03;6.00;;;16.90;99.90;;;;;;4979439;28;20454;-84
2023/10/01 08:24:20;;;;;;;11.83;5.70;;;17.00;99.90;;;;;;4979466;28;20236;-85
2023/10/01 08:26:58;;;;;;;9.13;5.37;;;17.10;99.90;;;;;;4980511;28;20462;-83
2023/10/01 08:29:28;;;;;;;9.97;5.23;;;17.10;99.90;;;;;;4982292;28;20458;-85
2023/10/01 08:32:09;;;;;;;14.20;5.93;;;17.20;99.90;;;;;;4979522;28;20486;-84
2023/10/01 08:37:23;;;;;;;10.90;5.83;;;17.30;99.90;;;;;;4982537;28;20447;-84
2023/10/01 08:39:53;;;;;;;10.17;5.60;;;17.40;99.90;;;;;;4980205;28;20469;-84
2023/10/01 08:42:28;;;;;;;12.47;6.03;;;17.50;99.90;;;;;;4978326;28;20460;-84
2023/10/01 08:45:02;;;;;;;10.70;5.83;;;17.60;99.90;;;;;;4976530;28;20498;-83
2023/10/01 08:47:34;;;;;;;11.60;5.43;;;17.70;99.90;;;;;;4975196;28;20539;-84
2023/10/01 08:50:28;;;;;;;12.00;6.20;;;17.70;99.90;;;;;;4985319;28;20492;-82
2023/10/01 08:53:01;;;;;;;11.67;6.20;;;17.80;99.90;;;;;;4977144;28;20449;-84
2023/10/01 08:55:35;;;;;;;9.00;6.20;;;17.90;99.90;;;;;;4982831;28;20825;-82
2023/10/01 08:58:15;;;;;;;10.13;4.97;;;18.00;99.90;;;;;;4969531;28;21007;-82
2023/10/01 09:00:48;;;;;;;11.53;5.30;;;18.00;99.90;;;;;;4977412;28;20474;-84
2023/10/01 09:03:26;;;;;;;8.93;5.23;;;18.10;99.90;;;;;;4978318;28;20547;-82
2023/10/01 09:06:01;;;;;;;11.90;5.50;;;18.20;99.90;;;;;;4978998;28;20573;-83
2023/10/01 09:08:31;;;;;;;10.80;6.10;;;18.30;99.90;;;;;;4982345;28;21005;-83
2023/10/01 09:10:59;;;;;;;10.50;5.70;;;18.30;99.90;;;;;;4979489;28;21029;-83
2023/10/01 09:13:30;;;;;;;11.37;5.70;;;18.50;99.90;;;;;;4981829;28;20485;-82
2023/10/01 09:16:10;;;;;;;11.03;6.00;;;18.60;99.90;;;;;;4981098;28;20462;-82
2023/10/01 09:19:03;;;;;;;12.10;5.50;;;18.80;99.90;;;;;;4983187;28;20843;-84
2023/10/01 09:21:38;;;;;;;10.73;5.53;;;18.90;99.90;;;;;;4982916;28;20479;-84
2023/10/01 09:24:31;;;;;;;13.30;7.40;;;19.00;99.90;;;;;;4983491;28;20465;-83
2023/10/01 09:27:19;;;;;;;12.63;5.70;;;19.10;99.90;;;;;;4983829;28;20455;-83
2023/10/01 09:29:57;;;;;;;11.23;6.10;;;19.30;99.90;;;;;;4990217;28;20479;-83
2023/10/01 09:32:50;;;;;;;8.43;5.17;;;19.30;99.90;;;;;;4983722;28;20511;-83
2023/10/01 09:35:30;;;;;;;11.77;5.90;;;19.30;99.90;;;;;;4992091;28;20549;-83
2023/10/01 09:38:10;;;;;;;10.77;5.67;;;19.30;99.90;;;;;;4997851;28;20455;-83
2023/10/01 09:40:38;;;;;;;10.60;6.30;;;19.50;99.90;;;;;;4978402;28;20475;-83
2023/10/01 09:43:17;;;;;;;10.67;6.10;;;19.70;99.90;;;;;;4971035;28;20996;-85
2023/10/01 09:45:47;;;;;;;14.43;7.10;;;19.80;99.90;;;;;;4978395;28;20479;-83
2023/10/01 09:48:30;;;;;;;11.30;5.90;;;20.00;99.90;;;;;;4979864;28;20482;-82
2023/10/01 09:51:07;;;;;;;9.10;5.40;;;20.20;99.90;;;;;;4972029;28;20490;-82
2023/10/01 09:53:48;;;;;;;10.00;5.67;;;20.40;99.90;;;;;;4980630;28;20456;-83
2023/10/01 09:56:25;;;;;;;11.20;5.77;;;20.50;99.90;;;;;;4981251;28;20509;-83
2023/10/01 09:58:58;;;;;;;10.37;6.40;;;20.70;99.90;;;;;;4980243;28;20455;-83
2023/10/01 10:01:28;;;;;;;10.07;6.10;;;21.00;99.90;;;;;;4980760;28;21012;-83
2023/10/01 10:03:59;;;;;;;9.93;5.30;;;21.20;99.90;;;;;;4981160;28;20478;-83
2023/10/01 10:06:26;;;;;;;10.93;6.40;;;21.40;99.90;;;;;;4975129;28;20490;-83
2023/10/01 10:09:03;;;;;;;11.10;5.50;;;21.60;99.90;;;;;;4980672;28;20463;-83
2023/10/01 10:11:36;;;;;;;12.80;6.00;;;21.90;99.90;;;;;;4979765;28;20492;-82
2023/10/01 10:14:24;;;;;;;10.77;5.73;;;22.20;99.90;;;;;;4973960;28;20450;-83
2023/10/01 10:16:59;;;;;;;14.30;6.40;;;22.50;99.90;;;;;;4979346;28;20490;-83
2023/10/01 10:19:31;;;;;;;12.80;6.80;;;22.60;99.90;;;;;;4967843;28;20479;-82
2023/10/01 10:22:25;;;;;;;11.47;6.40;;;22.60;99.90;;;;;;4984200;28;20459;-83
2023/10/01 10:25:25;;;;;;;11.17;6.20;;;22.90;99.90;;;;;;4971540;28;20495;-85
2023/10/01 10:27:52;;;;;;;12.50;6.03;;;23.10;99.90;;;;;;4980527;28;20451;-83
2023/10/01 10:30:21;;;;;;;9.20;5.30;;;23.30;99.90;;;;;;4979275;28;20483;-84
2023/10/01 10:33:39;;;;;;;9.50;5.53;;;23.50;99.90;;;;;;4980073;28;20455;-84
2023/10/01 10:36:51;;;;;;;10.27;6.13;;;23.50;99.90;;;;;;4965917;28;20976;-83
2023/10/01 10:40:22;;;;;;;9.40;6.07;;;23.60;99.90;;;;;;4973252;28;20896;-83
2023/10/01 10:43:19;;;;;;;10.87;6.87;;;23.70;99.90;;;;;;4968980;28;20475;-84
2023/10/01 10:46:04;;;;;;;13.80;7.13;;;23.90;99.90;;;;;;4978262;28;20526;-82
2023/10/01 10:49:02;;;;;;;9.40;6.03;;;24.10;99.90;;;;;;4978488;28;20483;-82
2023/10/01 10:51:46;;;;;;;11.20;6.23;;;24.40;99.90;;;;;;4979032;28;20471;-82
2023/10/01 10:54:31;;;;;;;9.70;6.43;;;24.50;99.90;;;;;;4973719;28;20526;-83
2023/10/01 10:56:59;;;;;;;8.67;5.57;;;24.50;99.90;;;;;;4979506;28;20481;-83
2023/10/01 10:59:29;;;;;;;10.07;5.03;;;24.50;99.90;;;;;;4980163;28;20482;-82
2023/10/01 11:01:57;;;;;;;12.83;5.70;;;24.40;99.90;;;;;;4980917;28;20443;-82
2023/10/01 11:04:30;;;;;;;8.67;5.33;;;24.50;99.90;;;;;;4989023;28;20530;-81
2023/10/01 11:07:04;;;;;;;12.67;6.53;;;24.60;99.90;;;;;;4980504;28;20458;-83
2023/10/01 11:09:33;;;;;;;12.23;6.20;;;24.80;99.90;;;;;;4980100;28;20447;-83
2023/10/01 11:12:05;;;;;;;12.40;5.77;;;25.20;99.90;;;;;;4980225;28;20922;-83
2023/10/01 11:14:35;;;;;;;13.33;6.50;;;25.50;99.90;;;;;;4980053;28;20455;-82
2023/10/01 11:17:01;;;;;;;9.93;6.13;;;25.40;99.90;;;;;;4980483;28;20456;-83
2023/10/01 11:19:35;;;;;;;13.23;6.70;;;25.60;99.90;;;;;;4980831;28;20534;-85
2023/10/01 11:22:04;;;;;;;10.60;5.53;;;25.70;99.90;;;;;;4980446;28;20475;-83
2023/10/01 11:24:32;;;;;;;10.03;6.00;;;25.90;99.90;;;;;;4980049;28;20458;-83
2023/10/01 11:27:25;;;;;;;11.20;5.77;;;26.10;99.90;;;;;;4976329;28;20457;-83
2023/10/01 11:30:13;;;;;;;8.70;5.47;;;26.30;99.90;;;;;;4978376;28;20471;-83
2023/10/01 11:32:59;;;;;;;9.73;5.90;;;26.30;99.90;;;;;;4980238;28;20475;-84
2023/10/01 11:35:31;;;;;;;11.63;6.77;;;26.50;99.90;;;;;;4979381;28;20477;-83
2023/10/01 11:38:00;;;;;;;11.87;7.10;;;26.50;99.90;;;;;;4988690;28;20455;-82
2023/10/01 11:41:06;;;;;;;9.80;5.80;;;26.10;99.90;;;;;;4989575;28;20480;-81
2023/10/01 11:43:23;;;;;;;8.93;6.10;;;26.10;99.90;;;;;;4976445;28;20450;-79
2023/10/01 11:46:20;;;;;;;10.63;6.30;;;26.10;99.90;;;;;;4977366;28;21077;-81
2023/10/01 11:48:57;;;;;;;10.17;5.87;;;26.30;99.90;;;;;;4967385;28;20459;-81
2023/10/01 11:51:31;;;;;;;10.03;5.70;;;26.70;99.90;;;;;;4977854;28;20479;-81
2023/10/01 11:54:09;;;;;;;10.60;6.00;;;27.00;99.90;;;;;;4976534;28;20558;-80
2023/10/01 11:56:37;;;;;;;11.70;6.63;;;26.90;99.90;;;;;;4977726;28;20455;-81
2023/10/01 11:59:08;;;;;;;12.43;6.73;;;27.10;99.90;;;;;;4978711;28;20460;-80
2023/10/01 12:01:43;;;;;;;10.70;5.87;;;27.30;99.90;;;;;;4977326;28;20513;-81
2023/10/01 12:04:10;;;;;;;10.70;6.73;;;27.40;99.90;;;;;;4974509;28;20877;-82
2023/10/01 12:06:38;;;;;;;10.70;6.10;;;27.70;99.90;;;;;;4976536;28;20491;-80
2023/10/01 12:09:05;;;;;;;9.80;6.30;;;27.50;99.90;;;;;;4975893;28;20490;-83
2023/10/01 12:11:36;;;;;;;11.07;7.23;;;27.60;99.90;;;;;;4976704;28;20479;-81
2023/10/01 12:14:08;;;;;;;11.43;6.90;;;27.80;99.90;;;;;;4973517;28;20451;-83
2023/10/01 12:16:39;;;;;;;11.80;6.87;;;28.00;99.90;;;;;;4973807;28;20559;-80
2023/10/01 12:19:24;;;;;;;11.10;7.60;;;28.20;99.90;;;;;;4964710;28;20874;-81
2023/10/01 12:22:05;;;;;;;10.47;6.00;;;28.10;99.90;;;;;;4979586;28;20461;-82
2023/10/01 12:24:39;;;;;;;11.90;6.77;;;28.20;99.90;;;;;;4972477;28;20522;-83
2023/10/01 12:27:08;;;;;;;13.03;7.40;;;28.30;99.90;;;;;;4975894;28;20494;-82
2023/10/01 12:29:43;;;;;;;13.80;7.30;;;28.30;99.90;;;;;;4977945;28;20814;-81
2023/10/01 12:32:14;;;;;;;12.10;7.30;;;27.90;99.90;;;;;;4971885;28;20447;-83
2023/10/01 12:34:42;;;;;;;13.63;7.00;;;27.70;99.90;;;;;;4978317;28;20450;-83
2023/10/01 12:37:35;;;;;;;12.10;6.63;;;27.50;99.90;;;;;;4978794;28;20502;-81
2023/10/01 12:40:14;;;;;;;13.13;6.27;;;27.60;99.90;;;;;;4977759;28;20471;-82
2023/10/01 12:42:46;;;;;;;11.60;7.20;;;27.70;99.90;;;;;;4978216;28;20459;-82
2023/10/01 12:45:14;;;;;;;10.57;6.23;;;27.90;99.90;;;;;;4979900;28;20463;-81
2023/10/01 12:47:50;;;;;;;7.97;5.80;;;27.90;99.90;;;;;;4978203;28;20972;-81
2023/10/01 12:50:26;;;;;;;11.20;7.20;;;27.80;99.90;;;;;;4978836;28;20491;-82
2023/10/01 12:53:17;;;;;;;11.90;6.80;;;27.90;99.90;;;;;;4970920;28;20455;-83
2023/10/01 12:55:42;;;;;;;13.93;8.03;;;27.80;99.90;;;;;;4979182;28;20503;-81
2023/10/01 12:58:09;;;;;;;11.20;7.37;;;27.80;99.90;;;;;;4978582;28;20505;-81
2023/10/01 13:00:45;;;;;;;11.13;6.80;;;27.50;99.90;;;;;;4979276;28;20477;-83
2023/10/01 13:03:16;;;;;;;14.87;8.30;;;27.30;99.90;;;;;;4968065;28;20459;-81
2023/10/01 13:05:45;;;;;;;10.97;7.63;;;27.50;99.90;;;;;;4976737;28;20494;-82
2023/10/01 13:08:13;;;;;;;13.23;7.50;;;27.80;99.90;;;;;;4975110;28;20456;-81
2023/10/01 13:10:50;;;;;;;13.03;6.60;;;27.60;99.90;;;;;;4968698;28;20533;-82
2023/10/01 13:13:20;;;;;;;13.30;7.70;;;28.00;99.90;;;;;;4977302;28;20459;-81
2023/10/01 13:15:51;;;;;;;13.40;8.27;;;28.10;99.90;;;;;;4978732;28;20483;-82
2023/10/01 13:18:22;;;;;;;11.73;7.40;;;27.80;99.90;;;;;;4975480;28;20538;-80
2023/10/01 13:20:59;;;;;;;12.17;7.03;;;27.30;99.90;;;;;;4977245;28;20494;-81
2023/10/01 13:23:28;;;;;;;13.10;7.50;;;26.90;99.90;;;;;;4974740;28;20858;-80